Time;durP1;ratioP1;P1;durP2;ratioP2;P2;SDS_P1;SDS_P2;PMS_P1;PMS_P2;Temp;Humidity;BMP_temperature;BMP_pressure;BME280_temperature;BME280_humidity;BME280_pressure;Samples;Min_cycle;Max_cycle;Signal;HPM_P1;HPM_P2
2021/01/28 00:00:40;;;;;;;10.25;3.10;;;23.80;79.40;;;;;;5009271;28;20101;-57
2021/01/28 00:03:10;;;;;;;16.67;3.67;;;23.80;79.40;;;;;;5004852;28;20026;-51
2021/01/28 00:05:40;;;;;;;11.20;3.65;;;23.70;79.70;;;;;;5009886;28;20149;-55
2021/01/28 00:08:07;;;;;;;14.68;4.32;;;23.70;80.00;;;;;;5010334;28;20095;-51
2021/01/28 00:10:35;;;;;;;23.42;4.75;;;23.70;80.00;;;;;;5011055;28;20472;-52
2021/01/28 00:13:04;;;;;;;18.42;5.32;;;23.60;80.00;;;;;;5019399;28;20480;-55
2021/01/28 00:15:34;;;;;;;15.65;4.20;;;23.60;80.10;;;;;;5009725;28;20068;-59
2021/01/28 00:18:03;;;;;;;16.10;4.07;;;23.50;80.20;;;;;;5010247;28;20091;-53
2021/01/28 00:20:34;;;;;;;15.68;4.80;;;23.50;80.10;;;;;;5009634;28;20452;-57
2021/01/28 00:23:02;;;;;;;15.90;4.07;;;23.50;79.90;;;;;;5004295;28;20391;-52
2021/01/28 00:25:30;;;;;;;17.48;3.85;;;23.50;80.20;;;;;;5010310;28;20114;-57
2021/01/28 00:27:58;;;;;;;17.90;4.82;;;23.50;80.20;;;;;;5010799;28;20062;-58
2021/01/28 00:30:34;;;;;;;15.45;3.95;;;23.50;80.10;;;;;;5009209;28;20022;-56
2021/01/28 00:33:02;;;;;;;15.95;3.78;;;23.60;79.90;;;;;;5003993;28;20038;-57
2021/01/28 00:35:36;;;;;;;17.55;4.57;;;23.60;80.00;;;;;;5007803;28;20030;-58
2021/01/28 00:38:05;;;;;;;13.65;4.20;;;23.60;80.00;;;;;;5007630;28;20034;-56
2021/01/28 00:40:33;;;;;;;20.95;6.32;;;23.60;79.70;;;;;;5006130;28;20026;-57
2021/01/28 00:43:01;;;;;;;19.17;8.73;;;23.70;79.70;;;;;;5003596;28;20357;-55
2021/01/28 00:45:31;;;;;;;20.65;7.45;;;23.70;79.80;;;;;;5009670;28;20140;-58
2021/01/28 00:47:59;;;;;;;19.30;7.70;;;23.70;79.60;;;;;;5010404;28;20025;-59
2021/01/28 00:50:29;;;;;;;15.40;7.28;;;23.70;79.60;;;;;;5010726;28;20030;-60
2021/01/28 00:52:57;;;;;;;16.23;7.97;;;23.70;79.50;;;;;;5003742;28;20034;-56
2021/01/28 00:55:24;;;;;;;22.90;7.30;;;23.70;79.60;;;;;;5010207;28;20026;-51
2021/01/28 00:57:52;;;;;;;30.38;16.30;;;23.70;79.60;;;;;;5010142;28;20056;-51
2021/01/28 01:00:27;;;;;;;28.50;12.20;;;23.70;78.70;;;;;;5009280;28;20026;-51
2021/01/28 01:02:55;;;;;;;23.95;10.57;;;23.70;78.70;;;;;;5004051;28;20026;-54
2021/01/28 01:05:25;;;;;;;17.40;6.45;;;23.70;78.70;;;;;;5007860;28;20026;-55
2021/01/28 01:07:53;;;;;;;20.77;9.25;;;23.70;78.40;;;;;;5009394;28;20060;-55
2021/01/28 01:10:45;;;;;;;22.25;7.93;;;23.70;76.80;;;;;;5011258;28;20045;-53
2021/01/28 01:13:14;;;;;;;;;;;23.70;77.40;;;;;;5023404;28;20305;-55
2021/01/28 01:15:41;;;;;;;18.35;5.78;;;23.70;77.20;;;;;;5013319;28;19905;-52
2021/01/28 01:18:11;;;;;;;17.65;6.35;;;23.80;75.80;;;;;;5013525;28;20022;-61
2021/01/28 01:20:39;;;;;;;16.33;5.50;;;23.60;72.50;;;;;;4998388;28;20080;-63
2021/01/28 01:23:06;;;;;;;17.02;5.47;;;23.20;77.80;;;;;;4991137;28;20022;-61
2021/01/28 01:25:34;;;;;;;15.30;5.25;;;23.30;78.50;;;;;;4994508;28;20038;-62
2021/01/28 01:28:01;;;;;;;23.17;5.13;;;23.30;78.50;;;;;;4994948;28;20469;-61
2021/01/28 01:30:29;;;;;;;13.40;4.78;;;23.20;73.10;;;;;;5012874;28;20040;-61
2021/01/28 01:32:56;;;;;;;17.98;4.30;;;23.20;79.00;;;;;;5000972;28;20174;-62
2021/01/28 01:35:24;;;;;;;21.35;4.63;;;23.30;77.30;;;;;;4995566;28;20081;-62
2021/01/28 01:37:54;;;;;;;22.02;5.13;;;23.50;74.70;;;;;;4994404;28;20030;-62
2021/01/28 01:40:32;;;;;;;15.38;4.10;;;23.50;77.90;;;;;;5010421;28;20365;-59
2021/01/28 01:43:01;;;;;;;14.73;4.07;;;23.50;76.60;;;;;;5007654;28;20034;-61
2021/01/28 01:45:32;;;;;;;22.13;4.35;;;23.70;71.90;;;;;;5013710;28;20030;-62
2021/01/28 01:48:06;;;;;;;17.77;4.25;;;23.50;77.50;;;;;;5013932;28;20033;-62
2021/01/28 01:50:37;;;;;;;22.35;3.67;;;23.60;72.00;;;;;;5012482;28;20033;-62
2021/01/28 01:53:09;;;;;;;20.90;4.95;;;23.50;74.20;;;;;;5013899;28;20034;-60
2021/01/28 01:55:43;;;;;;;18.25;4.25;;;23.50;75.10;;;;;;5015041;28;20026;-62
2021/01/28 01:58:17;;;;;;;22.33;4.97;;;23.50;76.40;;;;;;5001983;28;20026;-60
2021/01/28 02:00:44;;;;;;;14.60;3.70;;;23.50;76.80;;;;;;4993712;28;20030;-61
2021/01/28 02:03:13;;;;;;;17.90;4.25;;;23.60;73.20;;;;;;4992344;28;20038;-58
2021/01/28 02:05:47;;;;;;;21.88;4.82;;;23.70;73.40;;;;;;4994840;28;20026;-61
2021/01/28 02:08:14;;;;;;;26.25;5.10;;;23.60;78.00;;;;;;5014103;28;20030;-63
2021/01/28 02:10:42;;;;;;;20.38;4.03;;;23.70;77.30;;;;;;5005515;28;20136;-61
2021/01/28 02:13:09;;;;;;;19.17;4.13;;;23.70;77.50;;;;;;5021849;28;20038;-61
2021/01/28 02:15:37;;;;;;;23.40;4.70;;;23.70;72.90;;;;;;5007769;28;20042;-62
2021/01/28 02:18:04;;;;;;;22.52;3.78;;;23.60;77.90;;;;;;5010074;28;20117;-61
2021/01/28 02:21:10;;;;;;;20.27;3.90;;;23.60;71.00;;;;;;5010442;28;20022;-60
2021/01/28 02:24:08;;;;;;;13.20;4.18;;;23.60;76.90;;;;;;5008785;28;20034;-56
2021/01/28 02:26:36;;;;;;;15.73;3.45;;;23.70;71.20;;;;;;5011593;28;20097;-61
2021/01/28 02:29:05;;;;;;;17.15;3.63;;;23.60;74.90;;;;;;5009009;28;20026;-57
2021/01/28 02:31:34;;;;;;;24.88;4.53;;;23.80;72.60;;;;;;5011060;28;20026;-62
2021/01/28 02:34:01;;;;;;;17.50;3.75;;;23.70;70.90;;;;;;5006567;28;20042;-60
2021/01/28 02:36:40;;;;;;;15.95;3.55;;;23.80;77.20;;;;;;5011018;28;20096;-63
2021/01/28 02:39:14;;;;;;;16.67;3.97;;;23.90;74.90;;;;;;5011314;28;20099;-63
2021/01/28 02:41:46;;;;;;;15.75;3.70;;;23.80;69.60;;;;;;5002430;28;20476;-61
2021/01/28 02:44:13;;;;;;;20.30;3.85;;;24.00;71.60;;;;;;5007545;28;20117;-61
2021/01/28 02:46:44;;;;;;;15.35;2.90;;;23.90;75.90;;;;;;5011858;28;20029;-62
2021/01/28 02:49:11;;;;;;;18.35;3.38;;;23.90;71.60;;;;;;5008689;28;20057;-61
2021/01/28 02:51:38;;;;;;;13.00;3.60;;;24.00;72.70;;;;;;5009971;28;20053;-62
2021/01/28 02:54:06;;;;;;;16.88;3.38;;;23.90;75.70;;;;;;5006368;28;20311;-62
2021/01/28 02:56:33;;;;;;;14.70;3.83;;;23.90;75.40;;;;;;5007606;28;20496;-63
2021/01/28 02:59:01;;;;;;;21.70;4.22;;;24.00;76.10;;;;;;5011401;28;20033;-63
2021/01/28 03:01:28;;;;;;;20.48;3.65;;;24.10;74.10;;;;;;5010212;28;20451;-62
2021/01/28 03:03:55;;;;;;;25.95;4.72;;;23.70;71.30;;;;;;5007387;28;20060;-58
2021/01/28 03:06:23;;;;;;;17.85;4.20;;;23.90;73.80;;;;;;5009698;28;20506;-59
2021/01/28 03:08:50;;;;;;;15.38;3.70;;;23.70;73.80;;;;;;5010968;28;20026;-62
2021/01/28 03:11:17;;;;;;;18.98;4.35;;;23.90;75.60;;;;;;5004671;28;20049;-62
2021/01/28 03:13:45;;;;;;;21.08;4.18;;;24.00;75.90;;;;;;5006931;28;20507;-65
2021/01/28 03:16:12;;;;;;;18.30;3.72;;;23.90;74.00;;;;;;5010090;28;20026;-62
2021/01/28 03:18:40;;;;;;;25.67;4.90;;;23.80;73.20;;;;;;5009759;28;20044;-60
2021/01/28 03:21:07;;;;;;;13.57;4.20;;;24.00;73.40;;;;;;5008039;28;20037;-63
2021/01/28 03:23:36;;;;;;;16.58;4.10;;;24.20;75.20;;;;;;5008908;28;20069;-63
2021/01/28 03:26:03;;;;;;;16.80;4.32;;;24.20;74.90;;;;;;5009262;28;20053;-61
2021/01/28 03:28:31;;;;;;;20.38;3.80;;;24.10;72.90;;;;;;5011009;28;20108;-63
2021/01/28 03:30:58;;;;;;;23.65;3.95;;;24.10;74.10;;;;;;5009196;28;20480;-60
2021/01/28 03:33:26;;;;;;;21.45;5.53;;;24.00;72.40;;;;;;5010085;28;20045;-58
2021/01/28 03:35:53;;;;;;;17.05;3.55;;;24.20;74.10;;;;;;5007432;28;20025;-62
2021/01/28 03:38:21;;;;;;;17.08;4.00;;;24.30;74.90;;;;;;5010901;28;20022;-63
2021/01/28 03:40:49;;;;;;;13.00;3.53;;;24.30;74.80;;;;;;5010669;28;20037;-62
2021/01/28 03:43:16;;;;;;;17.10;3.95;;;24.30;73.60;;;;;;5009712;28;20116;-66
2021/01/28 03:45:43;;;;;;;16.65;4.78;;;24.10;75.10;;;;;;5005954;28;20022;-63
2021/01/28 03:48:14;;;;;;;15.75;3.30;;;23.90;74.40;;;;;;5010410;28;20032;-62
2021/01/28 03:50:41;;;;;;;20.75;4.32;;;24.10;75.70;;;;;;5011036;28;20556;-61
2021/01/28 03:53:09;;;;;;;27.20;4.30;;;24.00;76.30;;;;;;5009135;28;20061;-59
2021/01/28 03:55:36;;;;;;;17.75;3.55;;;23.70;75.40;;;;;;5007385;28;20388;-60
2021/01/28 03:58:03;;;;;;;17.10;4.05;;;23.90;76.60;;;;;;5010767;28;20072;-53
2021/01/28 04:00:34;;;;;;;18.05;3.50;;;23.70;75.10;;;;;;5010602;28;20425;-58
2021/01/28 04:03:03;;;;;;;11.25;3.95;;;23.70;75.10;;;;;;5007765;28;20041;-62
2021/01/28 04:05:30;;;;;;;15.75;4.00;;;23.70;75.20;;;;;;5006196;28;20674;-60
2021/01/28 04:07:58;;;;;;;16.30;4.00;;;23.60;76.80;;;;;;5010361;28;20069;-62
2021/01/28 04:10:32;;;;;;;20.52;4.35;;;23.70;76.80;;;;;;5010722;28;20036;-62
2021/01/28 04:13:00;;;;;;;17.80;3.47;;;23.60;77.20;;;;;;5006642;28;20056;-63
2021/01/28 04:15:28;;;;;;;16.48;3.83;;;23.70;76.20;;;;;;5005002;28;20504;-65
2021/01/28 04:17:56;;;;;;;13.23;4.15;;;23.50;78.50;;;;;;5010604;28;20433;-63
2021/01/28 04:20:26;;;;;;;14.13;3.42;;;23.50;80.90;;;;;;5010255;28;20050;-63
2021/01/28 04:22:57;;;;;;;11.55;3.25;;;23.50;80.10;;;;;;5007185;28;20026;-60
2021/01/28 04:25:26;;;;;;;18.40;4.35;;;23.70;77.90;;;;;;5006836;28;20042;-58
2021/01/28 04:27:55;;;;;;;18.85;3.78;;;23.50;79.20;;;;;;5008791;28;20052;-56
2021/01/28 04:30:29;;;;;;;20.20;4.18;;;23.70;79.50;;;;;;5009739;28;20480;-58
2021/01/28 04:32:57;;;;;;;17.17;3.67;;;23.60;79.00;;;;;;5008967;28;20130;-59
2021/01/28 04:35:25;;;;;;;11.68;3.78;;;23.70;78.70;;;;;;5006884;28;20113;-58
2021/01/28 04:37:53;;;;;;;14.00;3.55;;;24.00;76.80;;;;;;5010045;28;20056;-61
2021/01/28 04:40:31;;;;;;;16.00;3.35;;;24.00;78.60;;;;;;5008589;28;20034;-59
2021/01/28 04:43:03;;;;;;;10.75;2.83;;;23.30;82.20;;;;;;5009061;28;20022;-61
2021/01/28 04:45:32;;;;;;;15.98;4.15;;;23.60;79.20;;;;;;5010548;28;20049;-61
2021/01/28 04:48:05;;;;;;;14.00;3.33;;;23.30;80.80;;;;;;5013449;28;20026;-61
2021/01/28 04:50:37;;;;;;;15.18;3.70;;;23.60;79.50;;;;;;5013547;28;20061;-59
2021/01/28 04:53:31;;;;;;;15.30;4.20;;;23.70;79.00;;;;;;5012071;28;20441;-55
2021/01/28 04:56:02;;;;;;;15.20;3.75;;;23.20;81.70;;;;;;5010805;28;20069;-62
2021/01/28 04:58:30;;;;;;;13.88;3.90;;;23.30;81.60;;;;;;5011395;28;20049;-59
2021/01/28 05:00:57;;;;;;;15.68;3.33;;;23.30;81.60;;;;;;5013368;28;20021;-58
2021/01/28 05:03:37;;;;;;;15.95;4.10;;;23.00;83.20;;;;;;5012164;28;20079;-53
2021/01/28 05:06:05;;;;;;;17.88;4.55;;;23.50;80.30;;;;;;5012125;28;20456;-59
2021/01/28 05:08:36;;;;;;;10.20;2.90;;;23.60;81.20;;;;;;5009595;28;20633;-55
2021/01/28 05:11:17;;;;;;;15.63;3.97;;;23.60;79.20;;;;;;5013249;28;20475;-60
2021/01/28 05:13:45;;;;;;;21.17;4.22;;;23.60;81.00;;;;;;5010164;28;20088;-64
2021/01/28 05:16:43;;;;;;;16.95;4.18;;;23.20;82.30;;;;;;5009277;28;21103;-62
2021/01/28 05:19:13;;;;;;;15.27;3.70;;;23.20;82.50;;;;;;5012446;28;20137;-59
2021/01/28 05:21:43;;;;;;;17.25;4.28;;;23.40;81.60;;;;;;5013549;28;20029;-62
2021/01/28 05:24:24;;;;;;;16.48;3.70;;;23.40;81.10;;;;;;5011446;28;20049;-58
2021/01/28 05:26:51;;;;;;;13.18;3.42;;;23.70;79.10;;;;;;4995380;28;20026;-57
2021/01/28 05:29:28;;;;;;;16.15;3.22;;;23.80;78.40;;;;;;4994943;28;20018;-59
2021/01/28 05:31:59;;;;;;;9.75;3.08;;;23.90;77.80;;;;;;4995093;28;20088;-55
2021/01/28 05:34:29;;;;;;;10.77;3.85;;;24.00;77.40;;;;;;5012685;28;20025;-58
2021/01/28 05:37:00;;;;;;;11.05;3.78;;;24.10;77.20;;;;;;5013974;28;20022;-57
2021/01/28 05:39:37;;;;;;;15.80;4.10;;;24.10;76.90;;;;;;5014781;28;20025;-60
2021/01/28 05:42:25;;;;;;;13.15;3.75;;;24.10;76.70;;;;;;5013770;28;20034;-56
2021/01/28 05:44:53;;;;;;;9.50;2.72;;;24.10;76.60;;;;;;5014188;28;20022;-61
2021/01/28 05:47:26;;;;;;;12.38;4.57;;;24.10;76.60;;;;;;4996794;28;20049;-62
2021/01/28 05:49:55;;;;;;;10.80;3.13;;;23.90;77.50;;;;;;5001296;28;20030;-58
2021/01/28 05:52:25;;;;;;;13.68;3.42;;;23.90;77.60;;;;;;5013706;28;20040;-62
2021/01/28 05:55:10;;;;;;;9.25;3.33;;;23.80;77.60;;;;;;5012773;28;20495;-61
2021/01/28 05:58:02;;;;;;;10.00;3.83;;;23.80;78.10;;;;;;5014665;28;20026;-59
2021/01/28 06:00:54;;;;;;;12.00;4.38;;;23.70;77.90;;;;;;5014398;28;20034;-61
2021/01/28 06:03:36;;;;;;;14.88;4.63;;;23.70;77.00;;;;;;5013035;28;20109;-61
2021/01/28 06:06:16;;;;;;;19.02;5.10;;;23.60;76.00;;;;;;5013451;28;20117;-62
2021/01/28 06:09:19;;;;;;;18.98;13.82;;;23.40;78.70;;;;;;5012372;28;20025;-64
2021/01/28 06:12:36;;;;;;;18.73;5.57;;;23.50;79.00;;;;;;4992296;28;20027;-61
2021/01/28 06:15:21;;;;;;;21.88;8.20;;;23.60;78.80;;;;;;4985453;28;20099;-60
2021/01/28 06:18:19;;;;;;;21.08;6.25;;;23.50;79.50;;;;;;4993860;28;20041;-60
2021/01/28 06:21:13;;;;;;;21.15;5.70;;;23.50;79.30;;;;;;4993643;28;20084;-62
2021/01/28 06:23:58;;;;;;;20.65;7.35;;;23.10;81.90;;;;;;4993751;28;20046;-59
2021/01/28 06:26:36;;;;;;;20.65;8.05;;;23.10;81.50;;;;;;4999389;28;20033;-61
2021/01/28 06:29:38;;;;;;;19.73;8.55;;;23.30;81.50;;;;;;5013263;28;20021;-63
2021/01/28 06:32:23;;;;;;;16.85;6.07;;;23.30;80.80;;;;;;5013566;28;20026;-61
2021/01/28 06:35:15;;;;;;;16.58;9.20;;;23.30;82.30;;;;;;5012873;28;20381;-60
2021/01/28 06:38:11;;;;;;;19.23;6.95;;;23.30;80.90;;;;;;5000990;28;20042;-61
2021/01/28 06:40:47;;;;;;;16.80;8.88;;;23.40;81.90;;;;;;5008626;28;20030;-63
2021/01/28 06:43:29;;;;;;;23.40;8.80;;;23.60;80.40;;;;;;5006965;28;20037;-54
2021/01/28 06:46:08;;;;;;;;;;;23.70;79.80;;;;;;5007979;28;20057;-49
2021/01/28 06:48:46;;;;;;;15.77;6.28;;;23.70;79.50;;;;;;4992193;28;19968;-55
2021/01/28 06:51:47;;;;;;;21.67;6.75;;;23.70;79.10;;;;;;4992873;28;20022;-54
2021/01/28 06:54:33;;;;;;;16.50;5.53;;;23.80;79.60;;;;;;4986779;28;20078;-53
2021/01/28 06:57:36;;;;;;;12.65;5.07;;;23.80;79.70;;;;;;4992826;28;20480;-53
2021/01/28 07:00:19;;;;;;;17.80;5.15;;;23.80;79.80;;;;;;4993010;28;20037;-55
2021/01/28 07:02:49;;;;;;;13.63;5.03;;;23.80;80.10;;;;;;4993265;28;20065;-52
2021/01/28 07:05:30;;;;;;;17.02;5.05;;;23.90;79.70;;;;;;4994522;28;20038;-51
2021/01/28 07:08:31;;;;;;;15.43;4.82;;;23.90;80.20;;;;;;4993052;28;20439;-52
2021/01/28 07:10:59;;;;;;;16.95;4.55;;;23.90;80.00;;;;;;5011433;28;20026;-52
2021/01/28 07:13:35;;;;;;;19.52;4.40;;;23.90;80.80;;;;;;5007264;28;20046;-51
2021/01/28 07:16:17;;;;;;;27.95;4.90;;;23.90;80.20;;;;;;5006656;28;20022;-55
2021/01/28 07:18:49;;;;;;;13.90;3.60;;;24.00;81.80;;;;;;5006773;28;20358;-52
2021/01/28 07:21:48;;;;;;;13.73;4.15;;;24.00;80.20;;;;;;4991074;28;20416;-51
2021/01/28 07:24:35;;;;;;;16.50;4.38;;;23.90;80.40;;;;;;4991420;28;20038;-47
2021/01/28 07:27:10;;;;;;;12.65;3.88;;;23.90;80.70;;;;;;4992661;28;20065;-46
2021/01/28 07:29:46;;;;;;;19.70;4.10;;;23.90;81.20;;;;;;4992874;28;20022;-52
2021/01/28 07:32:23;;;;;;;19.98;4.57;;;23.80;81.70;;;;;;4992047;28;20054;-47
2021/01/28 07:35:27;;;;;;;16.38;4.28;;;23.90;82.20;;;;;;5005011;28;20237;-51
2021/01/28 07:37:56;;;;;;;14.32;3.88;;;23.90;82.50;;;;;;5006237;28;20091;-47
2021/01/28 07:41:01;;;;;;;21.35;3.67;;;23.90;82.70;;;;;;5007623;28;20041;-51
2021/01/28 07:43:31;;;;;;;28.48;5.38;;;23.90;82.90;;;;;;5021446;28;20046;-50
2021/01/28 07:46:18;;;;;;;28.08;5.20;;;23.90;83.90;;;;;;5007321;28;20026;-53
2021/01/28 07:49:04;;;;;;;41.60;6.30;;;23.90;84.20;;;;;;5006562;28;20026;-46
2021/01/28 07:51:34;;;;;;;35.00;5.10;;;24.00;84.70;;;;;;5011665;28;20025;-52
2021/01/28 07:54:03;;;;;;;35.42;6.32;;;23.90;85.20;;;;;;5011453;28;20507;-48
2021/01/28 07:56:46;;;;;;;26.60;5.78;;;23.90;85.80;;;;;;5010813;28;20026;-52
2021/01/28 07:59:32;;;;;;;23.40;4.85;;;23.90;86.30;;;;;;5010808;28;20088;-48
2021/01/28 08:02:29;;;;;;;26.98;5.18;;;23.90;85.80;;;;;;5011977;28;20029;-49
2021/01/28 08:04:59;;;;;;;30.80;5.88;;;23.90;86.60;;;;;;5010209;28;20037;-52
2021/01/28 08:07:30;;;;;;;16.35;5.60;;;23.90;85.40;;;;;;5012117;28;20080;-50
2021/01/28 08:10:01;;;;;;;39.63;7.72;;;23.90;86.20;;;;;;5012380;28;20480;-54
2021/01/28 08:13:07;;;;;;;21.15;5.10;;;23.90;85.50;;;;;;5012061;28;20412;-50
2021/01/28 08:15:37;;;;;;;40.55;6.18;;;23.90;85.60;;;;;;5007168;28;20030;-50
2021/01/28 08:18:16;;;;;;;35.35;7.88;;;23.80;85.20;;;;;;5011684;28;20025;-51
2021/01/28 08:20:43;;;;;;;44.28;6.78;;;23.80;85.20;;;;;;5011884;28;20057;-48
2021/01/28 08:23:28;;;;;;;44.80;6.90;;;23.80;85.80;;;;;;5005146;28;20092;-45
2021/01/28 08:26:00;;;;;;;38.35;6.20;;;23.80;85.50;;;;;;4990977;28;20404;-50
2021/01/28 08:28:34;;;;;;;39.25;6.97;;;23.80;85.10;;;;;;4992224;28;20022;-50
2021/01/28 08:31:28;;;;;;;34.45;6.25;;;23.70;85.30;;;;;;4992640;28;20488;-49
2021/01/28 08:34:02;;;;;;;39.60;6.97;;;23.70;83.10;;;;;;4991963;28;20575;-48
2021/01/28 08:37:03;;;;;;;33.92;6.03;;;23.70;86.30;;;;;;4992279;28;20489;-47
2021/01/28 08:39:34;;;;;;;42.95;6.88;;;23.70;85.10;;;;;;4987566;28;20066;-51
2021/01/28 08:42:06;;;;;;;37.35;6.13;;;23.70;84.00;;;;;;5012094;28;20376;-51
2021/01/28 08:44:34;;;;;;;;;;;23.70;84.20;;;;;;5012638;28;20375;-48
2021/01/28 08:47:31;;;;;;;32.28;5.43;;;23.70;83.50;;;;;;5011958;28;20390;-48
2021/01/28 08:50:07;;;;;;;37.08;5.15;;;23.50;83.40;;;;;;5004586;28;20037;-45
2021/01/28 08:52:36;;;;;;;22.25;4.72;;;23.50;84.00;;;;;;4991999;28;20484;-55
2021/01/28 08:55:27;;;;;;;30.75;4.82;;;23.40;84.20;;;;;;4992038;28;20030;-50
2021/01/28 08:58:16;;;;;;;28.33;4.95;;;23.40;84.20;;;;;;4998487;28;20041;-45
2021/01/28 09:00:50;;;;;;;24.52;4.82;;;23.50;84.80;;;;;;5007809;28;20026;-46
2021/01/28 09:03:27;;;;;;;22.00;5.38;;;23.30;85.10;;;;;;5007092;28;20021;-47
2021/01/28 09:06:00;;;;;;;19.00;5.45;;;23.20;85.10;;;;;;5002875;28;20022;-46
2021/01/28 09:08:38;;;;;;;20.02;4.25;;;23.20;85.60;;;;;;5007174;28;20391;-52
2021/01/28 09:11:24;;;;;;;31.30;5.93;;;23.20;85.70;;;;;;5006455;28;20037;-50
2021/01/28 09:14:15;;;;;;;20.83;5.25;;;23.20;86.70;;;;;;5005785;28;20384;-49
2021/01/28 09:16:54;;;;;;;18.45;4.88;;;23.10;86.60;;;;;;5003995;28;20037;-44
2021/01/28 09:19:23;;;;;;;17.67;4.40;;;23.10;86.90;;;;;;5008134;28;20052;-48
2021/01/28 09:21:57;;;;;;;15.40;4.72;;;23.00;86.20;;;;;;5008786;28;20026;-48
2021/01/28 09:24:32;;;;;;;15.25;4.32;;;23.00;86.60;;;;;;5003239;28;20062;-44
2021/01/28 09:27:19;;;;;;;18.05;4.28;;;23.00;87.10;;;;;;5005614;28;20112;-47
2021/01/28 09:29:48;;;;;;;17.08;3.72;;;23.00;86.80;;;;;;5008755;28;20041;-50
2021/01/28 09:32:18;;;;;;;18.20;5.25;;;23.10;86.80;;;;;;5012202;28;20021;-47
2021/01/28 09:35:02;;;;;;;24.73;5.82;;;23.10;86.80;;;;;;5010009;28;20030;-46
2021/01/28 09:37:29;;;;;;;17.25;4.65;;;23.00;87.00;;;;;;5011745;28;20073;-49
2021/01/28 09:39:57;;;;;;;19.45;4.75;;;23.00;87.00;;;;;;5013046;28;20034;-55
2021/01/28 09:42:31;;;;;;;17.08;4.75;;;23.00;87.00;;;;;;5012304;28;20030;-55
2021/01/28 09:45:09;;;;;;;23.30;5.50;;;23.00;87.80;;;;;;5008963;28;20030;-60
2021/01/28 09:47:37;;;;;;;29.50;5.90;;;23.10;88.40;;;;;;5011907;28;20037;-58
2021/01/28 09:50:10;;;;;;;28.05;5.45;;;23.10;88.10;;;;;;5011954;28;20029;-61
2021/01/28 09:52:43;;;;;;;33.05;6.78;;;23.10;88.00;;;;;;5010181;28;20034;-61
2021/01/28 09:55:18;;;;;;;20.85;6.13;;;23.10;87.50;;;;;;5009600;28;20095;-59
2021/01/28 09:57:45;;;;;;;25.60;6.38;;;23.20;87.30;;;;;;5012206;28;20030;-59
2021/01/28 10:00:17;;;;;;;15.45;4.40;;;23.10;87.20;;;;;;5010196;28;20026;-61
2021/01/28 10:02:56;;;;;;;24.73;5.63;;;23.20;86.90;;;;;;5009391;28;20603;-62
2021/01/28 10:05:27;;;;;;;23.17;5.47;;;23.20;86.90;;;;;;5009233;28;20076;-61
2021/01/28 10:07:55;;;;;;;19.00;5.10;;;23.20;86.80;;;;;;5011705;28;20044;-58
2021/01/28 10:10:30;;;;;;;25.42;5.57;;;23.20;86.80;;;;;;5011513;28;20026;-53
2021/01/28 10:13:00;;;;;;;19.65;6.18;;;23.20;86.90;;;;;;5012567;28;20030;-56
2021/01/28 10:15:28;;;;;;;21.88;6.10;;;23.20;86.70;;;;;;5009402;28;20022;-54
2021/01/28 10:17:56;;;;;;;22.17;5.85;;;23.20;86.50;;;;;;5010393;28;20029;-60
2021/01/28 10:20:24;;;;;;;19.60;5.57;;;23.20;86.30;;;;;;5012441;28;20067;-59
2021/01/28 10:22:54;;;;;;;21.95;6.45;;;23.20;86.10;;;;;;5012761;28;20028;-58
2021/01/28 10:25:24;;;;;;;20.15;5.35;;;23.20;85.90;;;;;;5009305;28;20041;-56
2021/01/28 10:27:53;;;;;;;20.63;5.47;;;23.20;85.70;;;;;;5011682;28;20048;-57
2021/01/28 10:30:22;;;;;;;20.75;5.72;;;23.30;85.70;;;;;;5010351;28;20038;-61
2021/01/28 10:32:51;;;;;;;16.27;5.70;;;23.30;85.50;;;;;;5010451;28;20034;-57
2021/01/28 10:35:26;;;;;;;15.90;5.28;;;23.30;85.40;;;;;;5008828;28;20387;-59
2021/01/28 10:37:55;;;;;;;22.27;6.63;;;23.30;85.20;;;;;;5007847;28;20677;-57
2021/01/28 10:40:24;;;;;;;16.55;4.65;;;23.30;85.20;;;;;;5011206;28;20056;-56
2021/01/28 10:42:57;;;;;;;23.30;5.97;;;23.30;85.10;;;;;;5010764;28;20025;-55
2021/01/28 10:45:28;;;;;;;16.00;5.07;;;23.30;84.90;;;;;;5008174;28;20026;-57
2021/01/28 10:47:56;;;;;;;18.55;5.25;;;23.30;84.70;;;;;;5009283;28;20024;-59
2021/01/28 10:50:24;;;;;;;20.70;5.03;;;23.30;84.70;;;;;;5011238;28;20029;-55
2021/01/28 10:52:53;;;;;;;16.25;4.97;;;23.30;84.70;;;;;;5010716;28;20041;-49
2021/01/28 10:55:22;;;;;;;15.77;5.13;;;23.30;84.70;;;;;;5008978;28;20018;-54
2021/01/28 10:57:50;;;;;;;16.77;5.20;;;23.20;84.60;;;;;;5010700;28;20036;-52
2021/01/28 11:00:18;;;;;;;17.90;5.03;;;23.30;84.60;;;;;;5007625;28;20022;-58
2021/01/28 11:02:46;;;;;;;13.85;4.55;;;23.30;84.50;;;;;;5012360;28;20038;-50
2021/01/28 11:05:18;;;;;;;18.17;5.43;;;23.30;84.40;;;;;;5008584;28;20480;-54
2021/01/28 11:07:45;;;;;;;;;;;23.20;84.30;;;;;;5009771;28;20057;-59
2021/01/28 11:10:14;;;;;;;14.25;4.57;;;23.30;84.20;;;;;;5007571;28;20005;-52
2021/01/28 11:12:41;;;;;;;13.50;4.72;;;23.30;84.20;;;;;;5011848;28;20233;-51
2021/01/28 11:15:09;;;;;;;15.75;4.50;;;23.30;84.10;;;;;;5008571;28;20022;-55
2021/01/28 11:17:37;;;;;;;13.45;4.57;;;23.30;84.00;;;;;;5005744;28;20034;-53
2021/01/28 11:20:06;;;;;;;13.77;4.50;;;23.30;83.90;;;;;;5007568;28;20034;-54
2021/01/28 11:22:33;;;;;;;17.75;5.38;;;23.30;83.80;;;;;;5011940;28;20040;-56
2021/01/28 11:25:01;;;;;;;17.00;4.63;;;23.30;83.70;;;;;;5007821;28;20058;-58
2021/01/28 11:27:28;;;;;;;12.93;4.13;;;23.30;83.60;;;;;;5008756;28;20045;-54
2021/01/28 11:29:56;;;;;;;13.73;4.22;;;23.30;83.60;;;;;;5011399;28;20022;-58
2021/01/28 11:32:23;;;;;;;13.18;4.63;;;23.30;83.60;;;;;;5026437;28;20026;-53
2021/01/28 11:34:51;;;;;;;13.85;4.78;;;23.30;83.40;;;;;;5008117;28;20034;-49
2021/01/28 11:37:18;;;;;;;14.98;4.70;;;23.30;83.30;;;;;;5010728;28;20064;-52
2021/01/28 11:39:47;;;;;;;11.93;4.30;;;23.30;83.30;;;;;;5010211;28;20175;-56
2021/01/28 11:42:15;;;;;;;13.57;4.32;;;23.30;83.20;;;;;;5011341;28;20033;-50
2021/01/28 11:44:42;;;;;;;12.95;4.45;;;23.30;83.20;;;;;;5001054;28;20017;-56
2021/01/28 11:47:10;;;;;;;13.52;4.22;;;23.30;83.10;;;;;;5010556;28;20022;-59
2021/01/28 11:49:37;;;;;;;11.25;4.05;;;23.30;83.10;;;;;;5011086;28;20373;-53
2021/01/28 11:52:05;;;;;;;12.65;4.32;;;23.30;83.10;;;;;;5008683;28;20384;-52
2021/01/28 11:54:32;;;;;;;10.65;3.47;;;23.30;83.00;;;;;;5007601;28;20048;-60
2021/01/28 11:56:59;;;;;;;13.35;4.32;;;23.30;83.00;;;;;;5010035;28;20030;-59
2021/01/28 11:59:27;;;;;;;12.98;4.10;;;23.30;82.80;;;;;;5009469;28;20026;-55
2021/01/28 12:01:54;;;;;;;14.02;5.20;;;23.30;82.90;;;;;;5012459;28;20053;-55
2021/01/28 12:04:21;;;;;;;11.77;4.15;;;23.30;82.80;;;;;;5011811;28;20034;-58
2021/01/28 12:06:49;;;;;;;12.63;4.35;;;23.40;82.80;;;;;;5012619;28;20022;-59
2021/01/28 12:09:16;;;;;;;10.05;4.10;;;23.30;82.70;;;;;;5012281;28;20034;-56
2021/01/28 12:11:43;;;;;;;10.48;3.95;;;23.30;82.60;;;;;;4998382;28;20038;-56
2021/01/28 12:14:11;;;;;;;12.00;4.28;;;23.30;82.60;;;;;;5008349;28;20538;-60
2021/01/28 12:16:38;;;;;;;13.40;4.10;;;23.30;82.70;;;;;;5012372;28;20061;-55
2021/01/28 12:19:05;;;;;;;15.45;3.63;;;23.30;82.70;;;;;;5012248;28;20092;-58
2021/01/28 12:21:33;;;;;;;15.13;4.05;;;23.30;82.70;;;;;;4999081;28;20042;-57
2021/01/28 12:24:00;;;;;;;10.63;3.88;;;23.30;82.70;;;;;;4992854;28;20097;-58
2021/01/28 12:26:28;;;;;;;17.08;5.30;;;23.30;82.70;;;;;;4992607;28;20057;-55
2021/01/28 12:28:55;;;;;;;14.73;4.53;;;23.30;82.60;;;;;;4990465;28;20504;-52
2021/01/28 12:31:22;;;;;;;13.98;3.95;;;23.30;82.80;;;;;;5008313;28;20117;-52
2021/01/28 12:33:50;;;;;;;13.90;4.60;;;23.30;82.70;;;;;;5011485;28;20044;-56
2021/01/28 12:36:17;;;;;;;18.10;4.38;;;23.30;82.60;;;;;;5000634;28;20026;-58
2021/01/28 12:38:45;;;;;;;16.20;4.53;;;23.30;83.50;;;;;;5007184;28;20030;-61
2021/01/28 12:41:12;;;;;;;18.80;4.78;;;23.30;83.00;;;;;;5008215;28;20036;-56
2021/01/28 12:43:39;;;;;;;26.35;4.05;;;23.30;83.10;;;;;;5008109;28;20109;-54
2021/01/28 12:46:07;;;;;;;17.30;4.38;;;23.30;82.90;;;;;;5009834;28;20077;-57
2021/01/28 12:48:34;;;;;;;13.50;3.67;;;23.30;82.70;;;;;;5010421;28;20034;-55
2021/01/28 12:51:02;;;;;;;19.80;3.83;;;23.30;82.80;;;;;;4998337;28;20037;-55
2021/01/28 12:53:29;;;;;;;17.98;4.20;;;23.30;83.00;;;;;;4992737;28;20039;-58
2021/01/28 12:55:56;;;;;;;19.77;4.90;;;23.30;82.90;;;;;;4992507;28;20022;-56
2021/01/28 12:58:24;;;;;;;16.35;3.88;;;23.40;82.70;;;;;;4992582;28;20101;-59
2021/01/28 13:00:51;;;;;;;15.02;4.10;;;23.40;82.60;;;;;;4988846;28;20518;-57
2021/01/28 13:03:20;;;;;;;17.90;4.63;;;23.30;82.50;;;;;;5006652;28;20213;-58
2021/01/28 13:05:48;;;;;;;13.15;3.78;;;23.30;82.40;;;;;;5010069;28;20033;-56
2021/01/28 13:08:15;;;;;;;13.77;3.83;;;23.30;82.60;;;;;;5011378;28;20029;-58